createdAt,value
2019-04-07T00:02:11.963Z,14.50
2019-04-07T00:04:39.852Z,14.47
2019-04-07T00:07:08.064Z,12.60
2019-04-07T00:09:35.581Z,13.57
2019-04-07T00:12:02.860Z,12.73
2019-04-07T00:14:30.156Z,13.60
2019-04-07T00:16:57.431Z,18.90
2019-04-07T00:19:24.706Z,12.60
2019-04-07T00:21:52.401Z,12.83
2019-04-07T00:24:19.670Z,12.63
2019-04-07T00:26:47.480Z,13.53
2019-04-07T00:29:15.542Z,13.40
2019-04-07T00:31:43.115Z,14.57
2019-04-07T00:34:10.832Z,12.47
2019-04-07T00:36:38.209Z,13.10
2019-04-07T00:39:06.868Z,11.97
2019-04-07T00:41:34.206Z,11.23
2019-04-07T00:44:01.565Z,12.00
2019-04-07T00:46:28.920Z,13.33
2019-04-07T00:48:56.245Z,14.10
2019-04-07T00:51:23.676Z,12.60
2019-04-07T00:53:51.013Z,17.57
2019-04-07T00:56:18.348Z,19.33
2019-04-07T00:58:46.618Z,16.00
2019-04-07T01:01:16.449Z,18.87
2019-04-07T01:03:44.767Z,19.03
2019-04-07T01:06:12.076Z,18.20
2019-04-07T01:08:39.350Z,22.20
2019-04-07T01:11:06.693Z,19.13
2019-04-07T01:13:34.005Z,19.93
2019-04-07T01:16:01.394Z,17.97
2019-04-07T01:18:30.530Z,18.83
2019-04-07T01:20:58.341Z,21.63
2019-04-07T01:23:25.985Z,20.90
2019-04-07T01:25:53.419Z,21.67
2019-04-07T01:28:21.137Z,21.53
2019-04-07T01:30:49.039Z,19.00
2019-04-07T01:33:16.576Z,23.93
2019-04-07T01:35:48.069Z,22.43
2019-04-07T01:38:13.663Z,18.70
2019-04-07T01:40:42.808Z,17.37
2019-04-07T01:43:11.839Z,18.83
2019-04-07T01:45:43.461Z,19.93
2019-04-07T01:48:18.161Z,21.30
2019-04-07T01:51:02.339Z,19.00
2019-04-07T01:53:34.786Z,19.33
2019-04-07T01:56:03.718Z,19.13
2019-04-07T01:58:50.982Z,18.37
2019-04-07T02:01:20.805Z,19.97
2019-04-07T02:03:51.127Z,19.23
2019-04-07T02:06:36.599Z,15.50
2019-04-07T02:09:13.649Z,19.63
2019-04-07T02:12:00.669Z,16.83
2019-04-07T02:14:44.502Z,16.73
2019-04-07T02:17:25.279Z,15.07
2019-04-07T02:19:57.099Z,14.33
2019-04-07T02:22:42.619Z,12.67
2019-04-07T02:25:14.654Z,16.37
2019-04-07T02:27:55.944Z,12.97
2019-04-07T02:30:29.133Z,13.13
2019-04-07T02:33:03.941Z,14.57
2019-04-07T02:35:35.449Z,12.87
2019-04-07T02:38:21.096Z,14.80
2019-04-07T02:40:53.445Z,21.17
2019-04-07T02:43:31.237Z,14.87
2019-04-07T02:46:12.832Z,16.50
2019-04-07T02:48:44.703Z,15.00
2019-04-07T02:51:26.081Z,16.47
2019-04-07T02:54:01.197Z,16.47
2019-04-07T02:56:33.683Z,14.60
2019-04-07T02:59:12.989Z,17.03
2019-04-07T03:01:58.315Z,16.37
2019-04-07T03:04:27.270Z,17.37
2019-04-07T03:07:02.767Z,16.60
2019-04-07T03:09:50.452Z,16.40
2019-04-07T03:12:19.505Z,18.07
2019-04-07T03:14:58.489Z,22.13
2019-04-07T03:17:33.340Z,16.33
2019-04-07T03:20:17.312Z,16.80
2019-04-07T03:23:03.509Z,17.40
2019-04-07T03:25:32.652Z,21.47
2019-04-07T03:28:04.713Z,34.50
2019-04-07T03:30:38.652Z,25.47
2019-04-07T03:33:11.229Z,27.20
2019-04-07T03:35:38.501Z,19.20
2019-04-07T03:38:23.260Z,21.80
2019-04-07T03:40:52.223Z,17.90
2019-04-07T03:43:30.424Z,20.93
2019-04-07T03:46:12.115Z,21.03
2019-04-07T03:48:41.625Z,20.17
2019-04-07T03:51:11.028Z,19.50
2019-04-07T03:53:56.006Z,23.60
2019-04-07T03:56:41.705Z,21.87
2019-04-07T03:59:13.506Z,28.93
2019-04-07T04:01:45.798Z,40.73
2019-04-07T04:04:24.329Z,38.43
2019-04-07T04:06:56.736Z,27.93
2019-04-07T04:09:40.653Z,30.10
2019-04-07T04:12:25.723Z,30.43
2019-04-07T04:14:54.893Z,29.40
2019-04-07T04:17:22.906Z,27.93
2019-04-07T04:19:50.395Z,25.57
2019-04-07T04:22:18.648Z,25.80
2019-04-07T04:24:47.040Z,20.10
2019-04-07T04:27:14.825Z,20.07
2019-04-07T04:29:42.201Z,23.20
2019-04-07T04:32:09.574Z,28.60
2019-04-07T04:34:38.982Z,30.50
2019-04-07T04:37:06.369Z,47.90
2019-04-07T04:39:33.970Z,62.03
2019-04-07T04:42:01.308Z,53.57
2019-04-07T04:44:29.437Z,34.13
2019-04-07T04:46:56.904Z,32.40
2019-04-07T04:49:24.270Z,25.10
2019-04-07T04:51:51.824Z,24.47
2019-04-07T04:54:19.412Z,29.17
2019-04-07T04:56:46.949Z,27.50
2019-04-07T04:59:14.877Z,33.00
2019-04-07T05:01:42.334Z,37.20
2019-04-07T05:04:10.019Z,45.03
2019-04-07T05:06:37.902Z,32.37
2019-04-07T05:09:06.933Z,46.97
2019-04-07T05:11:34.450Z,76.97
2019-04-07T05:14:01.998Z,59.10
2019-04-07T05:16:29.332Z,60.37
2019-04-07T05:18:57.313Z,76.73
2019-04-07T05:21:25.071Z,63.97
2019-04-07T05:23:52.377Z,57.17
2019-04-07T05:26:20.134Z,38.30
2019-04-07T05:28:48.246Z,64.73
2019-04-07T05:31:15.785Z,58.77
2019-04-07T05:33:43.283Z,56.43
2019-04-07T05:36:10.663Z,56.53
2019-04-07T05:38:38.014Z,40.00
2019-04-07T05:41:05.474Z,64.30
2019-04-07T05:43:32.841Z,71.43
2019-04-07T05:46:00.811Z,51.03
2019-04-07T05:48:28.161Z,48.07
2019-04-07T05:50:56.109Z,62.20
2019-04-07T05:53:24.532Z,46.40
2019-04-07T05:55:53.748Z,116.33
2019-04-07T05:58:22.125Z,76.60
2019-04-07T06:00:50.228Z,65.73
2019-04-07T06:03:17.752Z,111.77
2019-04-07T06:05:48.274Z,85.43
2019-04-07T06:08:26.831Z,79.93
2019-04-07T06:10:43.666Z,40.30
2019-04-07T06:13:13.012Z,28.97
2019-04-07T06:15:40.337Z,42.23
2019-04-07T06:18:08.338Z,48.23
2019-04-07T06:20:35.793Z,42.07
2019-04-07T06:23:03.862Z,56.63
2019-04-07T06:25:36.843Z,33.70
2019-04-07T06:28:00.401Z,34.43
2019-04-07T06:30:29.968Z,44.70
2019-04-07T06:32:56.965Z,37.80
2019-04-07T06:35:24.338Z,39.33
2019-04-07T06:37:52.049Z,53.53
2019-04-07T06:40:20.656Z,40.90
2019-04-07T06:42:48.856Z,37.43
2019-04-07T06:45:24.463Z,38.30
2019-04-07T06:48:07.374Z,44.53
2019-04-07T06:50:47.532Z,71.10
2019-04-07T06:53:14.253Z,37.47
2019-04-07T06:56:00.048Z,34.30
2019-04-07T06:58:33.132Z,40.43
2019-04-07T07:01:14.372Z,37.40
2019-04-07T07:03:59.189Z,33.63
2019-04-07T07:06:40.579Z,40.47
2019-04-07T07:09:14.120Z,38.80
2019-04-07T07:11:51.628Z,35.23
2019-04-07T07:14:34.231Z,43.60
2019-04-07T07:16:56.801Z,27.97
2019-04-07T07:19:34.744Z,34.57
2019-04-07T07:22:06.174Z,36.30
2019-04-07T07:24:32.733Z,30.80
2019-04-07T07:27:00.360Z,38.30
2019-04-07T07:29:27.680Z,37.13
2019-04-07T07:31:59.775Z,36.23
2019-04-07T07:34:23.998Z,31.97
2019-04-07T07:36:53.513Z,31.73
2019-04-07T07:39:23.164Z,32.83
2019-04-07T07:41:51.950Z,29.83
2019-04-07T07:44:20.047Z,32.07
2019-04-07T07:46:50.426Z,31.07
2019-04-07T07:49:16.831Z,29.47
2019-04-07T07:51:47.372Z,27.13
2019-04-07T07:54:14.934Z,25.80
2019-04-07T07:56:47.398Z,29.10
2019-04-07T07:59:11.272Z,23.70
2019-04-07T08:01:38.581Z,26.63
2019-04-07T08:04:06.279Z,25.10
2019-04-07T08:06:33.901Z,24.00
2019-04-07T08:09:12.140Z,26.70
2019-04-07T08:11:33.410Z,28.73
2019-04-07T08:14:00.001Z,24.60
2019-04-07T08:16:31.062Z,26.57
2019-04-07T08:18:59.374Z,24.07
2019-04-07T08:21:25.834Z,25.53
2019-04-07T08:23:54.575Z,23.93
2019-04-07T08:26:24.365Z,23.40
2019-04-07T08:28:51.415Z,24.70
2019-04-07T08:31:21.507Z,25.63
2019-04-07T08:33:50.348Z,24.03
2019-04-07T08:36:17.236Z,22.30
2019-04-07T08:38:44.657Z,23.43
2019-04-07T08:41:15.478Z,23.13
2019-04-07T08:43:42.029Z,23.70
2019-04-07T08:46:09.934Z,24.20
2019-04-07T08:48:37.465Z,19.50
2019-04-07T08:51:05.767Z,17.97
2019-04-07T08:53:33.146Z,20.20
2019-04-07T08:56:00.597Z,18.80
2019-04-07T08:58:30.084Z,18.57
2019-04-07T09:00:57.480Z,14.17
2019-04-07T09:03:24.921Z,12.10
2019-04-07T09:05:54.454Z,14.50
2019-04-07T09:08:21.318Z,15.50
2019-04-07T09:10:51.013Z,13.73
2019-04-07T09:13:18.634Z,11.50
2019-04-07T09:16:04.662Z,14.00
2019-04-07T09:18:33.773Z,8.83
2019-04-07T09:21:20.457Z,10.10
2019-04-07T09:24:07.115Z,12.20
2019-04-07T09:26:45.639Z,12.67
2019-04-07T09:29:31.333Z,12.10
2019-04-07T09:32:00.393Z,12.70
2019-04-07T09:34:32.377Z,10.83
2019-04-07T09:37:13.704Z,10.23
2019-04-07T09:39:59.697Z,9.03
2019-04-07T09:42:31.382Z,7.17
2019-04-07T09:45:17.417Z,9.17
2019-04-07T09:47:47.780Z,10.10
2019-04-07T09:50:17.470Z,10.60
2019-04-07T09:53:02.697Z,9.07
2019-04-07T09:55:34.350Z,9.63
2019-04-07T09:58:12.393Z,8.37
2019-04-07T10:00:44.341Z,8.40
2019-04-07T10:03:15.150Z,8.20
2019-04-07T10:05:49.509Z,12.50
2019-04-07T10:08:21.220Z,10.13
2019-04-07T10:11:06.343Z,10.33
2019-04-07T10:13:51.376Z,10.33
2019-04-07T10:16:36.180Z,10.27
2019-04-07T10:19:08.710Z,9.10
2019-04-07T10:21:38.286Z,9.37
2019-04-07T10:24:19.745Z,10.77
2019-04-07T10:27:04.097Z,10.77
2019-04-07T10:29:33.159Z,9.43
2019-04-07T10:32:18.890Z,9.33
2019-04-07T10:34:55.436Z,8.20
2019-04-07T10:37:39.520Z,6.17
2019-04-07T10:40:19.723Z,7.23
2019-04-07T10:42:59.923Z,8.07
2019-04-07T10:45:29.647Z,9.57
2019-04-07T10:48:11.686Z,8.73
2019-04-07T10:50:55.927Z,5.40
2019-04-07T10:53:32.215Z,8.33
2019-04-07T10:56:04.097Z,6.40
2019-04-07T10:58:33.257Z,5.20
2019-04-07T11:01:09.006Z,7.27
2019-04-07T11:03:44.414Z,6.17
2019-04-07T11:06:16.764Z,7.00
2019-04-07T11:08:55.416Z,4.80
2019-04-07T11:11:24.583Z,5.87
2019-04-07T11:14:11.602Z,7.60
2019-04-07T11:16:44.158Z,7.27
2019-04-07T11:19:29.546Z,8.00
2019-04-07T11:22:01.304Z,4.50
2019-04-07T11:24:42.251Z,6.03
2019-04-07T11:27:14.699Z,7.50
2019-04-07T11:29:43.890Z,7.53
2019-04-07T11:32:21.856Z,7.50
2019-04-07T11:35:06.075Z,6.23
2019-04-07T11:37:51.763Z,5.03
2019-04-07T11:40:41.495Z,7.70
2019-04-07T11:43:03.349Z,8.30
2019-04-07T11:45:32.406Z,7.50
2019-04-07T11:48:01.300Z,6.53
2019-04-07T11:50:30.911Z,6.40
2019-04-07T11:53:05.653Z,6.60
2019-04-07T11:55:40.580Z,6.70
2019-04-07T11:58:31.371Z,7.87
2019-04-07T12:01:02.495Z,8.60
2019-04-07T12:03:31.519Z,6.10
2019-04-07T12:06:06.560Z,9.17
2019-04-07T12:08:52.131Z,7.70
2019-04-07T12:11:30.997Z,6.60
2019-04-07T12:14:09.130Z,7.93
2019-04-07T12:16:55.314Z,7.20
2019-04-07T12:19:27.950Z,6.77
2019-04-07T12:22:12.814Z,6.90
2019-04-07T12:24:39.763Z,6.30
2019-04-07T12:27:10.810Z,7.80
2019-04-07T12:29:39.849Z,5.60
2019-04-07T12:32:15.884Z,6.40
2019-04-07T12:35:03.156Z,4.20
2019-04-07T12:37:48.803Z,5.80
2019-04-07T12:40:29.049Z,5.17
2019-04-07T12:43:07.464Z,5.50
2019-04-07T12:45:37.040Z,4.70
2019-04-07T12:48:23.083Z,6.30
2019-04-07T12:50:55.234Z,5.63
2019-04-07T12:53:26.722Z,6.10
2019-04-07T12:56:00.129Z,4.63
2019-04-07T12:58:26.674Z,6.83
2019-04-07T13:01:05.730Z,4.60
2019-04-07T13:03:47.279Z,4.30
2019-04-07T13:06:35.203Z,5.30
2019-04-07T13:09:19.420Z,5.63
2019-04-07T13:12:02.980Z,5.73
2019-04-07T13:14:32.390Z,7.63
2019-04-07T13:17:10.522Z,6.00
2019-04-07T13:19:48.789Z,6.00
2019-04-07T13:22:16.350Z,7.10
2019-04-07T13:24:59.005Z,7.00
2019-04-07T13:27:38.956Z,7.40
2019-04-07T13:30:08.812Z,8.00
2019-04-07T13:32:43.521Z,8.60
2019-04-07T13:35:19.770Z,7.10
2019-04-07T13:38:01.058Z,7.50
2019-04-07T13:40:30.628Z,6.40
2019-04-07T13:43:12.227Z,7.83
2019-04-07T13:45:46.133Z,7.13
2019-04-07T13:48:17.601Z,7.07
2019-04-07T13:50:45.898Z,5.87
2019-04-07T13:53:32.952Z,6.60
2019-04-07T13:56:15.705Z,6.37
2019-04-07T13:58:53.372Z,6.10
2019-04-07T14:01:37.546Z,7.10
2019-04-07T14:04:06.839Z,7.40
2019-04-07T14:06:54.425Z,7.67
2019-04-07T14:09:39.016Z,8.30
2019-04-07T14:12:12.716Z,7.77
2019-04-07T14:14:50.381Z,8.40
2019-04-07T14:17:25.052Z,8.17
2019-04-07T14:20:00.569Z,7.73
2019-04-07T14:22:46.543Z,7.70
2019-04-07T14:25:30.985Z,7.47
2019-04-07T14:28:00.030Z,7.93
2019-04-07T14:30:35.439Z,8.67
2019-04-07T14:33:07.659Z,6.60
2019-04-07T14:35:36.992Z,7.80
2019-04-07T14:38:06.825Z,7.67
2019-04-07T14:40:36.498Z,7.23
2019-04-07T14:43:05.747Z,7.80
2019-04-07T14:45:35.182Z,7.70
2019-04-07T14:48:13.453Z,9.23
2019-04-07T14:50:54.887Z,9.57
2019-04-07T14:53:40.885Z,10.50
2019-04-07T14:56:12.590Z,7.27
2019-04-07T14:58:48.512Z,6.27
2019-04-07T15:01:15.208Z,6.30
2019-04-07T15:03:42.813Z,5.83
2019-04-07T15:06:10.918Z,5.23
2019-04-07T15:08:40.919Z,6.00
2019-04-07T15:11:21.905Z,4.50
2019-04-07T15:13:49.509Z,5.50
2019-04-07T15:16:17.196Z,6.50
2019-04-07T15:18:44.631Z,7.30
2019-04-07T15:21:11.983Z,8.77
2019-04-07T15:23:40.006Z,6.43
2019-04-07T15:26:07.810Z,6.27
2019-04-07T15:28:35.153Z,7.23
2019-04-07T15:31:03.150Z,8.80
2019-04-07T15:33:33.926Z,8.23
2019-04-07T15:36:00.352Z,6.80
2019-04-07T15:38:28.492Z,6.90
2019-04-07T15:40:57.633Z,9.13
2019-04-07T15:43:25.398Z,6.27
2019-04-07T15:45:55.738Z,7.30
2019-04-07T15:48:25.822Z,8.20
2019-04-07T15:50:52.863Z,5.90
2019-04-07T15:53:20.930Z,5.53
2019-04-07T15:56:01.160Z,6.40
2019-04-07T15:58:20.510Z,5.97
2019-04-07T16:00:48.639Z,5.27
2019-04-07T16:03:16.955Z,7.90
2019-04-07T16:05:46.097Z,6.70
2019-04-07T16:08:13.713Z,8.00
2019-04-07T16:10:41.353Z,6.77
2019-04-07T16:13:09.861Z,6.30
2019-04-07T16:15:38.350Z,7.10
2019-04-07T16:18:07.285Z,7.23
2019-04-07T16:20:38.002Z,6.47
2019-04-07T16:23:03.810Z,7.60
2019-04-07T16:25:32.171Z,5.90
2019-04-07T16:27:59.597Z,5.20
2019-04-07T16:30:26.958Z,5.70
2019-04-07T16:32:54.794Z,7.10
2019-04-07T16:35:22.462Z,5.13
2019-04-07T16:37:49.881Z,4.30
2019-04-07T16:40:17.305Z,3.70
2019-04-07T16:43:00.450Z,4.83
2019-04-07T16:45:16.690Z,4.17
2019-04-07T16:47:43.685Z,5.70
2019-04-07T16:50:11.191Z,3.03
2019-04-07T16:52:38.526Z,5.90
2019-04-07T16:55:08.933Z,4.70
2019-04-07T16:57:35.411Z,4.10
2019-04-07T17:00:03.044Z,3.90
2019-04-07T17:02:30.626Z,3.73
2019-04-07T17:04:58.060Z,3.97
2019-04-07T17:07:25.361Z,3.03
2019-04-07T17:09:54.920Z,6.40
2019-04-07T17:12:22.515Z,4.87
2019-04-07T17:14:49.998Z,3.97
2019-04-07T17:17:20.769Z,4.47
2019-04-07T17:19:46.316Z,3.17
2019-04-07T17:22:16.035Z,6.63
2019-04-07T17:24:42.769Z,8.83
2019-04-07T17:27:11.769Z,4.27
2019-04-07T17:29:39.516Z,4.20
2019-04-07T17:32:08.073Z,4.73
2019-04-07T17:34:35.570Z,5.77
2019-04-07T17:37:02.980Z,3.43
2019-04-07T17:39:39.122Z,5.33
2019-04-07T17:42:05.924Z,3.40
2019-04-07T17:44:35.134Z,3.97
2019-04-07T17:47:04.233Z,4.33
2019-04-07T17:49:34.653Z,3.40
2019-04-07T17:52:15.743Z,4.83
2019-04-07T17:55:00.897Z,8.43
2019-04-07T17:57:45.035Z,8.83
2019-04-07T18:00:18.007Z,4.43
2019-04-07T18:02:56.315Z,4.40
2019-04-07T18:05:27.248Z,6.47
2019-04-07T18:08:11.987Z,5.23
2019-04-07T18:10:48.667Z,4.20
2019-04-07T18:13:22.804Z,3.93
2019-04-07T18:16:08.275Z,4.73
2019-04-07T18:18:51.715Z,8.00
2019-04-07T18:21:29.098Z,6.63
2019-04-07T18:24:08.307Z,6.23
2019-04-07T18:26:40.213Z,4.93
2019-04-07T18:29:29.370Z,4.10
2019-04-07T18:32:11.830Z,5.30
2019-04-07T18:34:43.671Z,4.77
2019-04-07T18:37:15.844Z,5.87
2019-04-07T18:39:51.504Z,4.70
2019-04-07T18:42:18.228Z,4.63
2019-04-07T18:45:04.110Z,4.50
2019-04-07T18:47:39.473Z,4.20
2019-04-07T18:50:10.327Z,4.90
2019-04-07T18:52:45.685Z,4.83
2019-04-07T18:55:21.058Z,7.00
2019-04-07T18:58:07.533Z,7.43
2019-04-07T19:00:39.256Z,8.57
2019-04-07T19:03:22.586Z,10.40
2019-04-07T19:05:54.273Z,5.50
2019-04-07T19:08:39.059Z,8.40
2019-04-07T19:11:16.791Z,5.10
2019-04-07T19:13:44.676Z,7.33
2019-04-07T19:16:28.511Z,9.67
2019-04-07T19:19:00.692Z,4.90
2019-04-07T19:21:34.383Z,8.37
2019-04-07T19:24:09.078Z,9.23
2019-04-07T19:26:37.564Z,8.70
2019-04-07T19:29:22.910Z,7.40
2019-04-07T19:31:59.820Z,10.80
2019-04-07T19:34:37.983Z,8.60
2019-04-07T19:37:10.190Z,9.27
2019-04-07T19:39:45.243Z,6.27
2019-04-07T19:42:14.442Z,6.10
2019-04-07T19:44:48.915Z,6.17
2019-04-07T19:47:34.439Z,6.40
2019-04-07T19:50:15.342Z,10.70
2019-04-07T19:52:59.511Z,10.50
2019-04-07T19:55:40.974Z,7.30
2019-04-07T19:58:14.097Z,7.30
2019-04-07T20:00:55.027Z,7.20
2019-04-07T20:03:39.843Z,5.87
2019-04-07T20:06:07.040Z,9.23
2019-04-07T20:08:44.660Z,5.73
2019-04-07T20:11:21.352Z,9.17
2019-04-07T20:13:50.909Z,6.30
2019-04-07T20:16:34.713Z,9.00
2019-04-07T20:19:04.430Z,8.03
2019-04-07T20:21:53.637Z,8.40
2019-04-07T20:24:21.773Z,8.40
2019-04-07T20:26:54.554Z,8.13
2019-04-07T20:29:41.398Z,7.83
2019-04-07T20:32:06.897Z,9.67
2019-04-07T20:34:45.062Z,8.10
2019-04-07T20:37:14.066Z,8.93
2019-04-07T20:39:43.877Z,7.90
2019-04-07T20:42:25.702Z,6.20
2019-04-07T20:45:06.587Z,6.80
2019-04-07T20:47:40.414Z,12.00
2019-04-07T20:50:17.836Z,7.53
2019-04-07T20:53:12.618Z,8.60
2019-04-07T20:55:39.969Z,7.23
2019-04-07T20:58:22.121Z,5.40
2019-04-07T21:01:00.589Z,5.90
2019-04-07T21:03:45.978Z,5.83
2019-04-07T21:06:12.729Z,7.67
2019-04-07T21:08:47.664Z,6.83
2019-04-07T21:11:31.483Z,6.57
2019-04-07T21:14:05.998Z,11.93
2019-04-07T21:16:46.499Z,5.93
2019-04-07T21:19:27.172Z,12.60
2019-04-07T21:22:08.670Z,6.33
2019-04-07T21:24:43.449Z,6.57
2019-04-07T21:27:16.345Z,8.67
2019-04-07T21:29:48.851Z,11.37
2019-04-07T21:32:26.904Z,8.43
2019-04-07T21:34:59.607Z,9.60
2019-04-07T21:37:45.039Z,9.07
2019-04-07T21:40:25.321Z,7.53
2019-04-07T21:43:02.964Z,9.00
2019-04-07T21:45:50.085Z,7.77
2019-04-07T21:48:28.679Z,11.60
2019-04-07T21:50:57.130Z,13.73
2019-04-07T21:53:30.464Z,13.30
2019-04-07T21:56:04.827Z,10.93
2019-04-07T21:58:36.324Z,11.43
2019-04-07T22:01:14.628Z,12.63
2019-04-07T22:03:47.839Z,7.47
2019-04-07T22:06:20.125Z,11.23
2019-04-07T22:08:51.916Z,8.10
2019-04-07T22:11:22.687Z,7.37
2019-04-07T22:13:49.149Z,9.53
2019-04-07T22:16:16.608Z,9.57
2019-04-07T22:18:43.873Z,9.70
2019-04-07T22:21:11.773Z,13.60
2019-04-07T22:23:40.116Z,11.20
2019-04-07T22:26:14.610Z,14.17
2019-04-07T22:28:37.295Z,12.60
2019-04-07T22:31:05.571Z,11.83
2019-04-07T22:33:33.702Z,12.90
2019-04-07T22:36:01.830Z,10.73
2019-04-07T22:38:29.410Z,11.00
2019-04-07T22:40:56.841Z,11.83
2019-04-07T22:43:25.015Z,13.03
2019-04-07T22:45:59.289Z,12.43
2019-04-07T22:48:24.607Z,12.53
2019-04-07T22:50:50.496Z,18.50
2019-04-07T22:53:22.369Z,12.50
2019-04-07T22:55:46.852Z,12.27
2019-04-07T22:58:14.264Z,11.50
2019-04-07T23:00:42.383Z,11.60
2019-04-07T23:03:10.018Z,12.30
2019-04-07T23:05:37.448Z,12.03
2019-04-07T23:08:04.856Z,12.43
2019-04-07T23:10:32.151Z,12.20
2019-04-07T23:12:59.888Z,12.30
2019-04-07T23:15:38.233Z,11.43
2019-04-07T23:17:56.280Z,14.73
2019-04-07T23:20:23.624Z,12.03
2019-04-07T23:22:50.937Z,11.60
2019-04-07T23:25:18.209Z,11.90
2019-04-07T23:27:45.786Z,14.97
2019-04-07T23:30:16.141Z,11.90
2019-04-07T23:32:43.776Z,18.20
2019-04-07T23:35:12.458Z,13.80
2019-04-07T23:37:39.909Z,11.00
2019-04-07T23:40:07.249Z,13.13
2019-04-07T23:42:34.548Z,12.70
2019-04-07T23:45:03.029Z,10.97
2019-04-07T23:47:31.182Z,12.10
2019-04-07T23:49:58.753Z,13.87
2019-04-07T23:52:26.024Z,12.97
2019-04-07T23:54:53.303Z,12.07
2019-04-07T23:57:20.680Z,14.77
2019-04-07T23:59:48.567Z,14.20
